Terminal Aerodrome Forecast
Issued by NWS

Home | Current Version | Previous Version | Text Only | Print | Product List | Glossary On
Versions: 1 2 3 4 5 6 7 8 9 10 11 12
000
FTUS45 KTFX 191132
TAFBZN
TAF
KBZN 191132Z 1912/2018 VRB05KT P6SM -SHRA BKN040 OVC090
     FM191700 27006KT P6SM SCT020 BKN090
     FM192100 27009KT 5SM -SHRA BKN010 OVC030
     FM200600 17006KT P6SM BKN070
     FM201700 21011KT P6SM -SHRA SCT050 BKN090=

USA.gov is the U.S. government's official web portal to all federal, state and local government web resources and services.